sensor_id;sensor_type;location;lat;lon;timestamp;P1;durP1;ratioP1;P2;durP2;ratioP2
9960;SDS011;5021;51.506;11.320;2023-07-22T00:01:26;7.63;;;6.97;;
9960;SDS011;5021;51.506;11.320;2023-07-22T00:03:53;7.50;;;6.77;;
9960;SDS011;5021;51.506;11.320;2023-07-22T00:06:19;7.43;;;6.73;;
9960;SDS011;5021;51.506;11.320;2023-07-22T00:08:45;7.87;;;7.17;;
9960;SDS011;5021;51.506;11.320;2023-07-22T00:11:11;7.03;;;6.40;;
9960;SDS011;5021;51.506;11.320;2023-07-22T00:13:37;7.43;;;6.77;;
9960;SDS011;5021;51.506;11.320;2023-07-22T00:16:03;7.80;;;7.10;;
9960;SDS011;5021;51.506;11.320;2023-07-22T00:18:29;7.87;;;7.17;;
9960;SDS011;5021;51.506;11.320;2023-07-22T00:20:56;8.23;;;6.67;;
9960;SDS011;5021;51.506;11.320;2023-07-22T00:23:22;8.10;;;7.30;;
9960;SDS011;5021;51.506;11.320;2023-07-22T00:25:48;7.90;;;7.20;;
9960;SDS011;5021;51.506;11.320;2023-07-22T00:28:14;7.73;;;7.13;;
9960;SDS011;5021;51.506;11.320;2023-07-22T00:30:40;7.80;;;7.10;;
9960;SDS011;5021;51.506;11.320;2023-07-22T00:33:06;8.20;;;7.50;;
9960;SDS011;5021;51.506;11.320;2023-07-22T00:35:32;7.77;;;7.17;;
9960;SDS011;5021;51.506;11.320;2023-07-22T00:37:58;8.00;;;7.37;;
9960;SDS011;5021;51.506;11.320;2023-07-22T00:40:24;8.33;;;7.63;;
9960;SDS011;5021;51.506;11.320;2023-07-22T00:42:50;7.90;;;7.20;;
9960;SDS011;5021;51.506;11.320;2023-07-22T00:45:16;8.53;;;7.40;;
9960;SDS011;5021;51.506;11.320;2023-07-22T00:47:44;8.10;;;7.40;;
9960;SDS011;5021;51.506;11.320;2023-07-22T00:50:10;7.57;;;6.97;;
9960;SDS011;5021;51.506;11.320;2023-07-22T00:52:37;7.60;;;7.00;;
9960;SDS011;5021;51.506;11.320;2023-07-22T00:55:04;8.13;;;7.43;;
9960;SDS011;5021;51.506;11.320;2023-07-22T00:57:30;7.40;;;6.80;;
9960;SDS011;5021;51.506;11.320;2023-07-22T00:59:56;7.50;;;6.90;;
9960;SDS011;5021;51.506;11.320;2023-07-22T01:02:22;8.20;;;7.40;;
9960;SDS011;5021;51.506;11.320;2023-07-22T01:04:48;8.97;;;8.17;;
9960;SDS011;5021;51.506;11.320;2023-07-22T01:07:15;9.43;;;8.53;;
9960;SDS011;5021;51.506;11.320;2023-07-22T01:09:42;9.50;;;8.57;;
9960;SDS011;5021;51.506;11.320;2023-07-22T01:12:08;9.73;;;8.93;;
9960;SDS011;5021;51.506;11.320;2023-07-22T01:14:35;10.60;;;9.60;;
9960;SDS011;5021;51.506;11.320;2023-07-22T01:17:01;11.70;;;10.70;;
9960;SDS011;5021;51.506;11.320;2023-07-22T01:19:28;11.33;;;10.30;;
9960;SDS011;5021;51.506;11.320;2023-07-22T01:21:54;15.30;;;10.73;;
9960;SDS011;5021;51.506;11.320;2023-07-22T01:24:21;12.93;;;11.73;;
9960;SDS011;5021;51.506;11.320;2023-07-22T01:26:47;13.10;;;11.90;;
9960;SDS011;5021;51.506;11.320;2023-07-22T01:29:13;12.07;;;10.87;;
9960;SDS011;5021;51.506;11.320;2023-07-22T01:31:40;13.40;;;12.13;;
9960;SDS011;5021;51.506;11.320;2023-07-22T01:34:06;12.73;;;11.63;;
9960;SDS011;5021;51.506;11.320;2023-07-22T01:36:32;12.37;;;11.17;;
9960;SDS011;5021;51.506;11.320;2023-07-22T01:38:58;13.13;;;11.93;;
9960;SDS011;5021;51.506;11.320;2023-07-22T01:41:25;14.70;;;12.83;;
9960;SDS011;5021;51.506;11.320;2023-07-22T01:43:51;12.93;;;11.77;;
9960;SDS011;5021;51.506;11.320;2023-07-22T01:46:17;13.10;;;11.90;;
9960;SDS011;5021;51.506;11.320;2023-07-22T01:48:43;13.43;;;12.23;;
9960;SDS011;5021;51.506;11.320;2023-07-22T01:51:09;12.80;;;11.70;;
9960;SDS011;5021;51.506;11.320;2023-07-22T01:53:35;13.23;;;12.13;;
9960;SDS011;5021;51.506;11.320;2023-07-22T01:56:01;14.13;;;12.17;;
9960;SDS011;5021;51.506;11.320;2023-07-22T01:58:27;13.50;;;12.30;;
9960;SDS011;5021;51.506;11.320;2023-07-22T02:00:53;14.67;;;13.27;;
9960;SDS011;5021;51.506;11.320;2023-07-22T02:03:19;13.90;;;12.70;;
9960;SDS011;5021;51.506;11.320;2023-07-22T02:05:45;14.73;;;13.23;;
9960;SDS011;5021;51.506;11.320;2023-07-22T02:08:11;13.73;;;12.50;;
9960;SDS011;5021;51.506;11.320;2023-07-22T02:10:37;13.63;;;12.40;;
9960;SDS011;5021;51.506;11.320;2023-07-22T02:13:03;14.13;;;12.77;;
9960;SDS011;5021;51.506;11.320;2023-07-22T02:15:29;14.43;;;13.17;;
9960;SDS011;5021;51.506;11.320;2023-07-22T02:17:55;14.13;;;12.90;;
9960;SDS011;5021;51.506;11.320;2023-07-22T02:20:21;14.37;;;13.07;;
9960;SDS011;5021;51.506;11.320;2023-07-22T02:22:47;13.50;;;12.20;;
9960;SDS011;5021;51.506;11.320;2023-07-22T02:25:13;13.83;;;12.53;;
9960;SDS011;5021;51.506;11.320;2023-07-22T02:27:40;13.60;;;12.30;;
9960;SDS011;5021;51.506;11.320;2023-07-22T02:30:06;14.13;;;12.73;;
9960;SDS011;5021;51.506;11.320;2023-07-22T02:32:39;15.27;;;13.67;;
9960;SDS011;5021;51.506;11.320;2023-07-22T02:35:06;13.73;;;12.47;;
9960;SDS011;5021;51.506;11.320;2023-07-22T02:37:33;13.27;;;12.07;;
9960;SDS011;5021;51.506;11.320;2023-07-22T02:39:59;14.37;;;12.87;;
9960;SDS011;5021;51.506;11.320;2023-07-22T02:42:25;14.53;;;13.10;;
9960;SDS011;5021;51.506;11.320;2023-07-22T02:44:51;14.13;;;12.83;;
9960;SDS011;5021;51.506;11.320;2023-07-22T02:47:17;14.70;;;13.30;;
9960;SDS011;5021;51.506;11.320;2023-07-22T02:49:43;13.87;;;12.57;;
9960;SDS011;5021;51.506;11.320;2023-07-22T02:52:10;14.00;;;12.63;;
9960;SDS011;5021;51.506;11.320;2023-07-22T02:54:39;14.00;;;12.70;;
9960;SDS011;5021;51.506;11.320;2023-07-22T02:57:05;13.30;;;12.00;;
9960;SDS011;5021;51.506;11.320;2023-07-22T02:59:31;14.90;;;13.50;;
9960;SDS011;5021;51.506;11.320;2023-07-22T03:01:58;14.23;;;12.87;;
9960;SDS011;5021;51.506;11.320;2023-07-22T03:04:24;14.40;;;12.90;;
9960;SDS011;5021;51.506;11.320;2023-07-22T03:06:49;15.43;;;13.93;;
9960;SDS011;5021;51.506;11.320;2023-07-22T03:09:15;15.40;;;13.80;;
9960;SDS011;5021;51.506;11.320;2023-07-22T03:11:41;13.97;;;12.67;;
9960;SDS011;5021;51.506;11.320;2023-07-22T03:14:07;14.63;;;13.20;;
9960;SDS011;5021;51.506;11.320;2023-07-22T03:16:33;13.83;;;12.33;;
9960;SDS011;5021;51.506;11.320;2023-07-22T03:18:59;14.77;;;12.67;;
9960;SDS011;5021;51.506;11.320;2023-07-22T03:21:25;12.17;;;10.97;;
9960;SDS011;5021;51.506;11.320;2023-07-22T03:23:51;11.93;;;10.83;;
9960;SDS011;5021;51.506;11.320;2023-07-22T03:26:17;12.27;;;11.03;;
9960;SDS011;5021;51.506;11.320;2023-07-22T03:28:43;13.87;;;12.57;;
9960;SDS011;5021;51.506;11.320;2023-07-22T03:31:09;13.67;;;12.33;;
9960;SDS011;5021;51.506;11.320;2023-07-22T03:33:35;12.97;;;11.77;;
9960;SDS011;5021;51.506;11.320;2023-07-22T03:36:01;12.83;;;11.63;;
9960;SDS011;5021;51.506;11.320;2023-07-22T03:38:27;12.80;;;11.50;;
9960;SDS011;5021;51.506;11.320;2023-07-22T03:40:53;13.27;;;11.27;;
9960;SDS011;5021;51.506;11.320;2023-07-22T03:43:19;14.03;;;12.50;;
9960;SDS011;5021;51.506;11.320;2023-07-22T03:45:45;12.63;;;11.43;;
9960;SDS011;5021;51.506;11.320;2023-07-22T03:48:11;11.87;;;10.67;;
9960;SDS011;5021;51.506;11.320;2023-07-22T03:50:37;11.73;;;10.60;;
9960;SDS011;5021;51.506;11.320;2023-07-22T03:53:03;13.87;;;12.57;;
9960;SDS011;5021;51.506;11.320;2023-07-22T03:55:28;13.50;;;12.20;;
9960;SDS011;5021;51.506;11.320;2023-07-22T03:57:54;13.40;;;12.03;;
9960;SDS011;5021;51.506;11.320;2023-07-22T04:00:20;12.50;;;11.30;;
9960;SDS011;5021;51.506;11.320;2023-07-22T04:02:47;12.33;;;11.20;;
9960;SDS011;5021;51.506;11.320;2023-07-22T04:05:13;12.33;;;11.17;;
9960;SDS011;5021;51.506;11.320;2023-07-22T04:07:39;12.10;;;10.90;;
9960;SDS011;5021;51.506;11.320;2023-07-22T04:10:05;12.27;;;11.10;;
9960;SDS011;5021;51.506;11.320;2023-07-22T04:12:31;12.07;;;10.67;;
9960;SDS011;5021;51.506;11.320;2023-07-22T04:14:57;11.73;;;10.57;;
9960;SDS011;5021;51.506;11.320;2023-07-22T04:17:23;14.93;;;10.87;;
9960;SDS011;5021;51.506;11.320;2023-07-22T04:19:50;11.17;;;10.07;;
9960;SDS011;5021;51.506;11.320;2023-07-22T04:22:17;11.93;;;10.60;;
9960;SDS011;5021;51.506;11.320;2023-07-22T04:24:43;12.37;;;11.07;;
9960;SDS011;5021;51.506;11.320;2023-07-22T04:27:08;14.53;;;13.00;;
9960;SDS011;5021;51.506;11.320;2023-07-22T04:29:35;12.20;;;10.73;;
9960;SDS011;5021;51.506;11.320;2023-07-22T04:32:01;13.07;;;11.73;;
9960;SDS011;5021;51.506;11.320;2023-07-22T04:34:28;14.07;;;12.70;;
9960;SDS011;5021;51.506;11.320;2023-07-22T04:36:54;13.00;;;11.70;;
9960;SDS011;5021;51.506;11.320;2023-07-22T04:39:21;14.73;;;12.47;;
9960;SDS011;5021;51.506;11.320;2023-07-22T04:41:47;14.13;;;12.73;;
9960;SDS011;5021;51.506;11.320;2023-07-22T04:44:13;15.43;;;13.93;;
9960;SDS011;5021;51.506;11.320;2023-07-22T04:46:38;15.30;;;13.73;;
9960;SDS011;5021;51.506;11.320;2023-07-22T04:49:05;18.27;;;13.70;;
9960;SDS011;5021;51.506;11.320;2023-07-22T04:51:31;15.53;;;13.70;;
9960;SDS011;5021;51.506;11.320;2023-07-22T04:53:57;14.60;;;13.10;;
9960;SDS011;5021;51.506;11.320;2023-07-22T04:56:23;14.03;;;12.73;;
9960;SDS011;5021;51.506;11.320;2023-07-22T04:58:49;15.67;;;13.50;;
9960;SDS011;5021;51.506;11.320;2023-07-22T05:01:15;15.30;;;12.87;;
9960;SDS011;5021;51.506;11.320;2023-07-22T05:03:41;14.10;;;12.03;;
9960;SDS011;5021;51.506;11.320;2023-07-22T05:06:08;13.43;;;12.03;;
9960;SDS011;5021;51.506;11.320;2023-07-22T05:08:34;14.17;;;12.77;;
9960;SDS011;5021;51.506;11.320;2023-07-22T05:11:02;14.20;;;12.80;;
9960;SDS011;5021;51.506;11.320;2023-07-22T05:13:29;12.97;;;11.67;;
9960;SDS011;5021;51.506;11.320;2023-07-22T05:15:55;13.03;;;11.83;;
9960;SDS011;5021;51.506;11.320;2023-07-22T05:18:20;14.20;;;12.47;;
9960;SDS011;5021;51.506;11.320;2023-07-22T05:20:46;13.23;;;11.80;;
9960;SDS011;5021;51.506;11.320;2023-07-22T05:23:12;12.77;;;11.47;;
9960;SDS011;5021;51.506;11.320;2023-07-22T05:25:38;14.43;;;12.93;;
9960;SDS011;5021;51.506;11.320;2023-07-22T05:28:04;14.30;;;12.07;;
9960;SDS011;5021;51.506;11.320;2023-07-22T05:30:30;14.37;;;12.30;;
9960;SDS011;5021;51.506;11.320;2023-07-22T05:32:56;12.17;;;10.90;;
9960;SDS011;5021;51.506;11.320;2023-07-22T05:35:22;13.57;;;10.97;;
9960;SDS011;5021;51.506;11.320;2023-07-22T05:37:48;14.23;;;10.97;;
9960;SDS011;5021;51.506;11.320;2023-07-22T05:40:14;11.27;;;10.10;;
9960;SDS011;5021;51.506;11.320;2023-07-22T05:42:40;12.03;;;10.27;;
9960;SDS011;5021;51.506;11.320;2023-07-22T05:45:06;11.23;;;9.23;;
9960;SDS011;5021;51.506;11.320;2023-07-22T05:47:32;11.47;;;9.77;;
9960;SDS011;5021;51.506;11.320;2023-07-22T05:49:58;11.03;;;9.07;;
9960;SDS011;5021;51.506;11.320;2023-07-22T05:52:24;11.37;;;8.90;;
9960;SDS011;5021;51.506;11.320;2023-07-22T05:54:50;12.30;;;8.83;;
9960;SDS011;5021;51.506;11.320;2023-07-22T05:57:16;9.97;;;8.40;;
9960;SDS011;5021;51.506;11.320;2023-07-22T05:59:42;11.00;;;9.40;;
9960;SDS011;5021;51.506;11.320;2023-07-22T06:02:08;13.87;;;9.37;;
9960;SDS011;5021;51.506;11.320;2023-07-22T06:04:35;14.87;;;9.00;;
9960;SDS011;5021;51.506;11.320;2023-07-22T06:07:01;11.10;;;9.17;;
9960;SDS011;5021;51.506;11.320;2023-07-22T06:09:27;9.47;;;8.47;;
9960;SDS011;5021;51.506;11.320;2023-07-22T06:11:53;10.60;;;9.00;;
9960;SDS011;5021;51.506;11.320;2023-07-22T06:14:19;9.67;;;8.43;;
9960;SDS011;5021;51.506;11.320;2023-07-22T06:16:45;9.47;;;8.20;;
9960;SDS011;5021;51.506;11.320;2023-07-22T06:19:11;10.90;;;8.40;;
9960;SDS011;5021;51.506;11.320;2023-07-22T06:21:37;10.00;;;8.47;;
9960;SDS011;5021;51.506;11.320;2023-07-22T06:24:03;11.67;;;8.93;;
9960;SDS011;5021;51.506;11.320;2023-07-22T06:26:29;11.97;;;8.47;;
9960;SDS011;5021;51.506;11.320;2023-07-22T06:28:54;11.40;;;8.03;;
9960;SDS011;5021;51.506;11.320;2023-07-22T06:31:20;8.90;;;7.90;;
9960;SDS011;5021;51.506;11.320;2023-07-22T06:33:47;9.30;;;7.50;;
9960;SDS011;5021;51.506;11.320;2023-07-22T06:36:12;9.60;;;7.60;;
9960;SDS011;5021;51.506;11.320;2023-07-22T06:38:38;14.53;;;7.40;;
9960;SDS011;5021;51.506;11.320;2023-07-22T06:41:04;9.67;;;6.60;;
9960;SDS011;5021;51.506;11.320;2023-07-22T06:43:30;8.60;;;6.80;;
9960;SDS011;5021;51.506;11.320;2023-07-22T06:45:56;9.37;;;7.23;;
9960;SDS011;5021;51.506;11.320;2023-07-22T06:48:22;7.77;;;6.80;;
9960;SDS011;5021;51.506;11.320;2023-07-22T06:50:48;7.40;;;6.70;;
9960;SDS011;5021;51.506;11.320;2023-07-22T06:53:15;7.57;;;6.83;;
9960;SDS011;5021;51.506;11.320;2023-07-22T06:55:53;9.07;;;7.40;;
9960;SDS011;5021;51.506;11.320;2023-07-22T06:58:19;9.30;;;6.87;;
9960;SDS011;5021;51.506;11.320;2023-07-22T07:00:47;8.93;;;6.77;;
9960;SDS011;5021;51.506;11.320;2023-07-22T07:03:13;9.27;;;7.57;;
9960;SDS011;5021;51.506;11.320;2023-07-22T07:05:39;7.90;;;7.03;;
9960;SDS011;5021;51.506;11.320;2023-07-22T07:08:06;8.80;;;7.00;;
9960;SDS011;5021;51.506;11.320;2023-07-22T07:10:36;7.90;;;6.83;;
9960;SDS011;5021;51.506;11.320;2023-07-22T07:13:02;8.73;;;6.90;;
9960;SDS011;5021;51.506;11.320;2023-07-22T07:15:28;8.67;;;7.20;;
9960;SDS011;5021;51.506;11.320;2023-07-22T07:17:54;9.27;;;6.80;;
9960;SDS011;5021;51.506;11.320;2023-07-22T07:20:20;7.27;;;6.53;;
9960;SDS011;5021;51.506;11.320;2023-07-22T07:22:46;7.60;;;6.77;;
9960;SDS011;5021;51.506;11.320;2023-07-22T07:25:12;8.50;;;6.40;;
9960;SDS011;5021;51.506;11.320;2023-07-22T07:27:40;5.93;;;5.40;;
9960;SDS011;5021;51.506;11.320;2023-07-22T07:30:06;6.77;;;5.87;;
9960;SDS011;5021;51.506;11.320;2023-07-22T07:32:33;7.63;;;6.00;;
9960;SDS011;5021;51.506;11.320;2023-07-22T07:34:59;6.30;;;5.60;;
9960;SDS011;5021;51.506;11.320;2023-07-22T07:37:25;7.10;;;5.47;;
9960;SDS011;5021;51.506;11.320;2023-07-22T07:39:51;6.37;;;5.43;;
9960;SDS011;5021;51.506;11.320;2023-07-22T07:42:17;8.80;;;5.37;;
9960;SDS011;5021;51.506;11.320;2023-07-22T07:44:43;6.53;;;5.20;;
9960;SDS011;5021;51.506;11.320;2023-07-22T07:47:09;7.37;;;5.70;;
9960;SDS011;5021;51.506;11.320;2023-07-22T07:49:35;8.50;;;5.90;;
9960;SDS011;5021;51.506;11.320;2023-07-22T07:52:01;7.47;;;5.40;;
9960;SDS011;5021;51.506;11.320;2023-07-22T07:54:27;8.30;;;5.87;;
9960;SDS011;5021;51.506;11.320;2023-07-22T07:56:53;6.60;;;5.57;;
9960;SDS011;5021;51.506;11.320;2023-07-22T07:59:19;10.30;;;6.13;;
9960;SDS011;5021;51.506;11.320;2023-07-22T08:01:45;6.77;;;5.37;;
9960;SDS011;5021;51.506;11.320;2023-07-22T08:04:11;6.73;;;5.83;;
9960;SDS011;5021;51.506;11.320;2023-07-22T08:06:37;7.30;;;5.47;;
9960;SDS011;5021;51.506;11.320;2023-07-22T08:09:04;7.33;;;6.10;;
9960;SDS011;5021;51.506;11.320;2023-07-22T08:11:30;12.63;;;5.70;;
9960;SDS011;5021;51.506;11.320;2023-07-22T08:13:56;7.28;;;5.10;;
9960;SDS011;5021;51.506;11.320;2023-07-22T08:16:22;5.53;;;5.03;;
9960;SDS011;5021;51.506;11.320;2023-07-22T08:18:49;7.93;;;6.47;;
9960;SDS011;5021;51.506;11.320;2023-07-22T08:21:15;6.60;;;5.63;;
9960;SDS011;5021;51.506;11.320;2023-07-22T08:23:41;5.93;;;5.20;;
9960;SDS011;5021;51.506;11.320;2023-07-22T08:26:10;6.87;;;5.50;;
9960;SDS011;5021;51.506;11.320;2023-07-22T08:28:36;6.87;;;5.23;;
9960;SDS011;5021;51.506;11.320;2023-07-22T08:31:02;5.97;;;4.93;;
9960;SDS011;5021;51.506;11.320;2023-07-22T08:33:28;8.30;;;5.00;;
9960;SDS011;5021;51.506;11.320;2023-07-22T08:35:54;5.30;;;4.80;;
9960;SDS011;5021;51.506;11.320;2023-07-22T08:38:20;4.90;;;4.40;;
9960;SDS011;5021;51.506;11.320;2023-07-22T08:40:48;5.37;;;4.50;;
9960;SDS011;5021;51.506;11.320;2023-07-22T08:43:15;5.77;;;4.63;;
9960;SDS011;5021;51.506;11.320;2023-07-22T08:45:41;8.10;;;4.30;;
9960;SDS011;5021;51.506;11.320;2023-07-22T08:48:08;5.57;;;5.00;;
9960;SDS011;5021;51.506;11.320;2023-07-22T08:50:46;5.27;;;4.70;;
9960;SDS011;5021;51.506;11.320;2023-07-22T08:53:13;7.10;;;5.00;;
9960;SDS011;5021;51.506;11.320;2023-07-22T08:55:39;6.03;;;4.50;;
9960;SDS011;5021;51.506;11.320;2023-07-22T08:58:07;5.30;;;4.30;;
9960;SDS011;5021;51.506;11.320;2023-07-22T09:00:34;7.90;;;5.33;;
9960;SDS011;5021;51.506;11.320;2023-07-22T09:03:00;4.93;;;4.43;;
9960;SDS011;5021;51.506;11.320;2023-07-22T09:05:26;5.23;;;4.73;;
9960;SDS011;5021;51.506;11.320;2023-07-22T09:07:53;5.23;;;4.70;;
9960;SDS011;5021;51.506;11.320;2023-07-22T09:10:19;5.27;;;4.37;;
9960;SDS011;5021;51.506;11.320;2023-07-22T09:12:46;4.93;;;4.43;;
9960;SDS011;5021;51.506;11.320;2023-07-22T09:15:12;4.93;;;4.43;;
9960;SDS011;5021;51.506;11.320;2023-07-22T09:17:39;5.00;;;4.50;;
9960;SDS011;5021;51.506;11.320;2023-07-22T09:20:05;4.73;;;4.33;;
9960;SDS011;5021;51.506;11.320;2023-07-22T09:22:32;5.73;;;4.63;;
9960;SDS011;5021;51.506;11.320;2023-07-22T09:25:11;6.17;;;4.47;;
9960;SDS011;5021;51.506;11.320;2023-07-22T09:27:39;6.00;;;4.67;;
9960;SDS011;5021;51.506;11.320;2023-07-22T09:30:17;6.40;;;4.73;;
9960;SDS011;5021;51.506;11.320;2023-07-22T09:32:45;4.50;;;4.10;;
9960;SDS011;5021;51.506;11.320;2023-07-22T09:35:11;5.77;;;4.80;;
9960;SDS011;5021;51.506;11.320;2023-07-22T09:37:37;5.87;;;4.47;;
9960;SDS011;5021;51.506;11.320;2023-07-22T09:42:52;4.73;;;4.27;;
9960;SDS011;5021;51.506;11.320;2023-07-22T09:45:19;7.43;;;4.57;;
9960;SDS011;5021;51.506;11.320;2023-07-22T09:47:46;6.30;;;4.73;;
9960;SDS011;5021;51.506;11.320;2023-07-22T09:50:30;5.23;;;4.73;;
9960;SDS011;5021;51.506;11.320;2023-07-22T09:52:56;6.87;;;4.40;;
9960;SDS011;5021;51.506;11.320;2023-07-22T09:55:29;4.60;;;4.03;;
9960;SDS011;5021;51.506;11.320;2023-07-22T09:57:56;4.80;;;4.13;;
9960;SDS011;5021;51.506;11.320;2023-07-22T10:00:23;5.00;;;4.50;;
9960;SDS011;5021;51.506;11.320;2023-07-22T10:02:50;5.20;;;4.30;;
9960;SDS011;5021;51.506;11.320;2023-07-22T10:05:17;6.17;;;4.20;;
9960;SDS011;5021;51.506;11.320;2023-07-22T10:10:14;5.50;;;4.90;;
9960;SDS011;5021;51.506;11.320;2023-07-22T10:12:41;5.80;;;3.93;;
9960;SDS011;5021;51.506;11.320;2023-07-22T10:15:08;5.33;;;4.57;;
9960;SDS011;5021;51.506;11.320;2023-07-22T10:17:34;4.90;;;4.50;;
9960;SDS011;5021;51.506;11.320;2023-07-22T10:20:01;4.57;;;4.17;;
9960;SDS011;5021;51.506;11.320;2023-07-22T10:22:31;5.43;;;4.70;;
9960;SDS011;5021;51.506;11.320;2023-07-22T10:24:58;6.13;;;4.33;;
9960;SDS011;5021;51.506;11.320;2023-07-22T10:27:24;7.87;;;4.53;;
9960;SDS011;5021;51.506;11.320;2023-07-22T10:29:51;4.70;;;4.30;;
9960;SDS011;5021;51.506;11.320;2023-07-22T10:32:20;5.73;;;4.53;;
9960;SDS011;5021;51.506;11.320;2023-07-22T10:34:45;4.83;;;4.40;;
9960;SDS011;5021;51.506;11.320;2023-07-22T10:37:11;4.90;;;4.40;;
9960;SDS011;5021;51.506;11.320;2023-07-22T10:39:37;6.13;;;4.97;;
9960;SDS011;5021;51.506;11.320;2023-07-22T10:42:04;5.63;;;4.90;;
9960;SDS011;5021;51.506;11.320;2023-07-22T10:44:30;7.50;;;4.90;;
9960;SDS011;5021;51.506;11.320;2023-07-22T10:46:57;5.10;;;4.60;;
9960;SDS011;5021;51.506;11.320;2023-07-22T10:49:24;5.30;;;4.80;;
9960;SDS011;5021;51.506;11.320;2023-07-22T10:51:51;5.30;;;4.80;;
9960;SDS011;5021;51.506;11.320;2023-07-22T10:54:30;5.20;;;4.70;;
9960;SDS011;5021;51.506;11.320;2023-07-22T10:57:02;6.67;;;5.53;;
9960;SDS011;5021;51.506;11.320;2023-07-22T10:59:28;5.73;;;4.83;;
9960;SDS011;5021;51.506;11.320;2023-07-22T11:01:58;7.03;;;5.27;;
9960;SDS011;5021;51.506;11.320;2023-07-22T11:04:24;6.23;;;4.93;;
9960;SDS011;5021;51.506;11.320;2023-07-22T11:06:58;7.13;;;5.27;;
9960;SDS011;5021;51.506;11.320;2023-07-22T11:12:01;8.27;;;4.93;;
9960;SDS011;5021;51.506;11.320;2023-07-22T11:14:28;5.53;;;5.03;;
9960;SDS011;5021;51.506;11.320;2023-07-22T11:16:56;6.90;;;4.97;;
9960;SDS011;5021;51.506;11.320;2023-07-22T11:19:22;5.80;;;4.83;;
9960;SDS011;5021;51.506;11.320;2023-07-22T11:21:49;5.60;;;5.10;;
9960;SDS011;5021;51.506;11.320;2023-07-22T11:24:15;4.87;;;4.43;;
9960;SDS011;5021;51.506;11.320;2023-07-22T11:26:42;5.30;;;4.77;;
9960;SDS011;5021;51.506;11.320;2023-07-22T11:29:08;5.70;;;5.20;;
9960;SDS011;5021;51.506;11.320;2023-07-22T11:31:35;5.77;;;5.17;;
9960;SDS011;5021;51.506;11.320;2023-07-22T11:34:02;5.93;;;5.10;;
9960;SDS011;5021;51.506;11.320;2023-07-22T11:36:28;5.67;;;4.60;;
9960;SDS011;5021;51.506;11.320;2023-07-22T11:38:55;5.90;;;5.30;;
9960;SDS011;5021;51.506;11.320;2023-07-22T11:41:26;5.53;;;5.03;;
9960;SDS011;5021;51.506;11.320;2023-07-22T11:43:52;8.13;;;5.50;;
9960;SDS011;5021;51.506;11.320;2023-07-22T11:46:18;6.00;;;5.30;;
9960;SDS011;5021;51.506;11.320;2023-07-22T11:48:54;5.30;;;4.80;;
9960;SDS011;5021;51.506;11.320;2023-07-22T11:51:20;6.80;;;5.33;;
9960;SDS011;5021;51.506;11.320;2023-07-22T11:53:50;8.43;;;5.77;;
9960;SDS011;5021;51.506;11.320;2023-07-22T11:56:23;5.40;;;4.90;;
9960;SDS011;5021;51.506;11.320;2023-07-22T11:58:50;6.00;;;5.10;;
9960;SDS011;5021;51.506;11.320;2023-07-22T12:01:16;10.90;;;4.97;;
9960;SDS011;5021;51.506;11.320;2023-07-22T12:03:42;5.67;;;5.17;;
9960;SDS011;5021;51.506;11.320;2023-07-22T12:06:08;5.87;;;4.97;;
9960;SDS011;5021;51.506;11.320;2023-07-22T12:08:35;5.27;;;4.77;;
9960;SDS011;5021;51.506;11.320;2023-07-22T12:11:01;5.70;;;4.83;;
9960;SDS011;5021;51.506;11.320;2023-07-22T12:13:28;5.40;;;4.90;;
9960;SDS011;5021;51.506;11.320;2023-07-22T12:16:04;5.87;;;4.20;;
9960;SDS011;5021;51.506;11.320;2023-07-22T12:18:46;6.83;;;4.47;;
9960;SDS011;5021;51.506;11.320;2023-07-22T12:21:13;4.43;;;4.03;;
9960;SDS011;5021;51.506;11.320;2023-07-22T12:23:39;4.70;;;4.20;;
9960;SDS011;5021;51.506;11.320;2023-07-22T12:26:05;6.50;;;4.70;;
9960;SDS011;5021;51.506;11.320;2023-07-22T12:28:31;4.97;;;4.57;;
9960;SDS011;5021;51.506;11.320;2023-07-22T12:30:57;5.57;;;5.00;;
9960;SDS011;5021;51.506;11.320;2023-07-22T12:33:24;4.73;;;4.33;;
9960;SDS011;5021;51.506;11.320;2023-07-22T12:35:50;4.60;;;4.20;;
9960;SDS011;5021;51.506;11.320;2023-07-22T12:38:16;6.10;;;4.73;;
9960;SDS011;5021;51.506;11.320;2023-07-22T12:40:42;5.30;;;4.33;;
9960;SDS011;5021;51.506;11.320;2023-07-22T12:43:08;5.27;;;4.77;;
9960;SDS011;5021;51.506;11.320;2023-07-22T12:45:34;5.87;;;4.60;;
9960;SDS011;5021;51.506;11.320;2023-07-22T12:48:01;5.93;;;4.53;;
9960;SDS011;5021;51.506;11.320;2023-07-22T12:50:28;5.43;;;4.93;;
9960;SDS011;5021;51.506;11.320;2023-07-22T12:52:54;6.03;;;4.37;;
9960;SDS011;5021;51.506;11.320;2023-07-22T12:55:20;4.50;;;4.10;;
9960;SDS011;5021;51.506;11.320;2023-07-22T12:57:46;5.27;;;4.77;;
9960;SDS011;5021;51.506;11.320;2023-07-22T13:00:12;5.30;;;4.70;;
9960;SDS011;5021;51.506;11.320;2023-07-22T13:02:38;4.63;;;4.23;;
9960;SDS011;5021;51.506;11.320;2023-07-22T13:05:04;5.23;;;4.73;;
9960;SDS011;5021;51.506;11.320;2023-07-22T13:07:31;4.43;;;4.03;;
9960;SDS011;5021;51.506;11.320;2023-07-22T13:09:57;6.20;;;4.17;;
9960;SDS011;5021;51.506;11.320;2023-07-22T13:12:25;4.43;;;4.03;;
9960;SDS011;5021;51.506;11.320;2023-07-22T13:14:51;4.83;;;4.23;;
9960;SDS011;5021;51.506;11.320;2023-07-22T13:17:17;4.73;;;4.00;;
9960;SDS011;5021;51.506;11.320;2023-07-22T13:19:43;4.33;;;3.93;;
9960;SDS011;5021;51.506;11.320;2023-07-22T13:22:09;4.73;;;4.20;;
9960;SDS011;5021;51.506;11.320;2023-07-22T13:24:35;4.70;;;4.30;;
9960;SDS011;5021;51.506;11.320;2023-07-22T13:27:01;4.40;;;4.00;;
9960;SDS011;5021;51.506;11.320;2023-07-22T13:29:27;4.43;;;4.03;;
9960;SDS011;5021;51.506;11.320;2023-07-22T13:31:53;4.37;;;3.90;;
9960;SDS011;5021;51.506;11.320;2023-07-22T13:34:19;4.63;;;4.23;;
9960;SDS011;5021;51.506;11.320;2023-07-22T13:36:45;8.63;;;3.73;;
9960;SDS011;5021;51.506;11.320;2023-07-22T13:39:11;4.53;;;3.87;;
9960;SDS011;5021;51.506;11.320;2023-07-22T13:41:37;4.67;;;4.27;;
9960;SDS011;5021;51.506;11.320;2023-07-22T13:44:04;4.50;;;4.10;;
9960;SDS011;5021;51.506;11.320;2023-07-22T13:46:30;4.90;;;4.10;;
9960;SDS011;5021;51.506;11.320;2023-07-22T13:48:56;4.53;;;4.13;;
9960;SDS011;5021;51.506;11.320;2023-07-22T13:51:22;4.47;;;4.07;;
9960;SDS011;5021;51.506;11.320;2023-07-22T13:53:48;5.77;;;4.27;;
9960;SDS011;5021;51.506;11.320;2023-07-22T13:56:14;5.63;;;4.43;;
9960;SDS011;5021;51.506;11.320;2023-07-22T13:58:40;4.30;;;3.90;;
9960;SDS011;5021;51.506;11.320;2023-07-22T14:01:06;5.00;;;3.80;;
9960;SDS011;5021;51.506;11.320;2023-07-22T14:03:33;5.30;;;4.00;;
9960;SDS011;5021;51.506;11.320;2023-07-22T14:05:59;3.83;;;3.53;;
9960;SDS011;5021;51.506;11.320;2023-07-22T14:08:25;4.23;;;3.60;;
9960;SDS011;5021;51.506;11.320;2023-07-22T14:10:51;6.03;;;4.07;;
9960;SDS011;5021;51.506;11.320;2023-07-22T14:13:17;4.80;;;3.60;;
9960;SDS011;5021;51.506;11.320;2023-07-22T14:15:43;4.20;;;3.80;;
9960;SDS011;5021;51.506;11.320;2023-07-22T14:18:09;4.97;;;3.90;;
9960;SDS011;5021;51.506;11.320;2023-07-22T14:20:35;4.10;;;3.70;;
9960;SDS011;5021;51.506;11.320;2023-07-22T14:23:01;4.00;;;3.60;;
9960;SDS011;5021;51.506;11.320;2023-07-22T14:25:28;4.17;;;3.83;;
9960;SDS011;5021;51.506;11.320;2023-07-22T14:27:54;4.17;;;3.77;;
9960;SDS011;5021;51.506;11.320;2023-07-22T14:30:20;5.33;;;4.10;;
9960;SDS011;5021;51.506;11.320;2023-07-22T14:32:46;4.23;;;3.83;;
9960;SDS011;5021;51.506;11.320;2023-07-22T14:35:12;4.77;;;3.87;;
9960;SDS011;5021;51.506;11.320;2023-07-22T14:37:38;3.90;;;3.60;;
9960;SDS011;5021;51.506;11.320;2023-07-22T14:40:04;3.87;;;3.33;;
9960;SDS011;5021;51.506;11.320;2023-07-22T14:42:30;4.87;;;3.67;;
9960;SDS011;5021;51.506;11.320;2023-07-22T14:44:56;4.00;;;3.70;;
9960;SDS011;5021;51.506;11.320;2023-07-22T14:47:22;3.80;;;3.50;;
9960;SDS011;5021;51.506;11.320;2023-07-22T14:49:48;4.90;;;3.30;;
9960;SDS011;5021;51.506;11.320;2023-07-22T14:52:14;4.67;;;3.27;;
9960;SDS011;5021;51.506;11.320;2023-07-22T14:54:40;3.63;;;3.33;;
9960;SDS011;5021;51.506;11.320;2023-07-22T14:57:07;4.17;;;3.50;;